createdAt,value
2023-03-13T00:02:17.956Z,61433.31
2023-03-13T00:04:46.411Z,61435.31
2023-03-13T00:07:14.789Z,61432.75
2023-03-13T00:09:43.125Z,61438.00
2023-03-13T00:12:12.962Z,61437.47
2023-03-13T00:14:41.483Z,61437.47
2023-03-13T00:17:09.834Z,61438.00
2023-03-13T00:19:38.396Z,61442.72
2023-03-13T00:22:06.833Z,61441.22
2023-03-13T00:24:35.307Z,61442.72
2023-03-13T00:27:05.127Z,61439.75
2023-03-13T00:29:36.095Z,61439.75
2023-03-13T00:32:04.679Z,61438.13
2023-03-13T00:34:33.328Z,61441.22
2023-03-13T00:37:01.671Z,61440.69
2023-03-13T00:39:30.092Z,61438.13
2023-03-13T00:41:58.425Z,61434.50
2023-03-13T00:44:26.862Z,61435.75
2023-03-13T00:46:56.611Z,61438.00
2023-03-13T00:49:25.051Z,61431.28
2023-03-13T00:51:53.457Z,61435.97
2023-03-13T00:54:21.897Z,61436.53
2023-03-13T00:56:50.298Z,61441.66
2023-03-13T00:59:18.786Z,61435.31
2023-03-13T01:01:48.009Z,61435.97
2023-03-13T01:04:17.800Z,61439.50
2023-03-13T01:06:46.272Z,61441.66
2023-03-13T01:09:16.873Z,61439.09
2023-03-13T01:11:46.536Z,61439.19
2023-03-13T01:14:18.631Z,61439.09
2023-03-13T01:16:47.876Z,61441.00
2023-03-13T01:19:18.593Z,61441.09
2023-03-13T01:21:47.944Z,61442.72
2023-03-13T01:24:16.960Z,61440.56
2023-03-13T01:26:45.364Z,61435.97
2023-03-13T01:29:13.945Z,61443.91
2023-03-13T01:31:42.434Z,61439.31
2023-03-13T01:34:12.895Z,61445.00
2023-03-13T01:36:43.749Z,61447.13
2023-03-13T01:39:12.090Z,61447.66
2023-03-13T01:41:40.769Z,61453.88
2023-03-13T01:44:23.718Z,61449.28
2023-03-13T01:46:52.607Z,61455.59
2023-03-13T01:49:33.375Z,61454.09
2023-03-13T01:52:16.368Z,61454.75
2023-03-13T01:54:59.918Z,61456.88
2023-03-13T01:57:32.901Z,61457.84
2023-03-13T02:00:08.034Z,61466.84
2023-03-13T02:02:46.199Z,61467.41
2023-03-13T02:05:16.420Z,61473.81
2023-03-13T02:07:52.300Z,61473.41
2023-03-13T02:10:22.224Z,61478.78
2023-03-13T02:12:51.347Z,61468.28
2023-03-13T02:15:22.685Z,61474.91
2023-03-13T02:17:52.345Z,61475.56
2023-03-13T02:20:22.851Z,61475.56
2023-03-13T02:23:01.199Z,61475.16
2023-03-13T02:25:43.462Z,61476.22
2023-03-13T02:28:17.896Z,61475.03
2023-03-13T02:30:49.038Z,61469.66
2023-03-13T02:33:19.727Z,61468.69
2023-03-13T02:35:49.943Z,61465.59
2023-03-13T02:38:25.123Z,61472.75
2023-03-13T02:40:55.733Z,61470.19
2023-03-13T02:43:30.764Z,61466.44
2023-03-13T02:46:10.058Z,61466.31
2023-03-13T02:48:45.357Z,61463.34
2023-03-13T02:51:21.559Z,61468.03
2023-03-13T02:53:52.237Z,61465.91
2023-03-13T02:56:25.733Z,61461.72
2023-03-13T02:58:55.213Z,61469.97
2023-03-13T03:01:26.506Z,61466.44
2023-03-13T03:03:55.095Z,61462.25
2023-03-13T03:06:23.518Z,61463.63
2023-03-13T03:08:52.620Z,61463.09
2023-03-13T03:11:22.445Z,61460.00
2023-03-13T03:13:57.466Z,61459.25
2023-03-13T03:16:27.416Z,61455.81
2023-03-13T03:18:55.785Z,61454.63
2023-03-13T03:21:24.649Z,61456.78
2023-03-13T03:23:53.721Z,61461.38
2023-03-13T03:26:23.515Z,61456.25
2023-03-13T03:28:52.078Z,61458.16
2023-03-13T03:31:20.815Z,61456.78
2023-03-13T03:33:49.387Z,61455.16
2023-03-13T03:36:22.682Z,61451.97
2023-03-13T03:38:51.867Z,61455.06
2023-03-13T03:41:26.561Z,61456.13
2023-03-13T03:43:55.903Z,61446.59
2023-03-13T03:46:28.291Z,61446.59
2023-03-13T03:48:57.844Z,61445.00
2023-03-13T03:51:26.488Z,61438.66
2023-03-13T03:53:54.919Z,61435.88
2023-03-13T03:56:23.397Z,61433.84
2023-03-13T03:58:57.653Z,61434.13
2023-03-13T04:01:44.388Z,61428.47
2023-03-13T04:04:13.573Z,61425.13
2023-03-13T04:06:45.135Z,61427.56
2023-03-13T04:09:13.976Z,61422.97
2023-03-13T04:11:42.334Z,61420.28
2023-03-13T04:14:13.319Z,61419.75
2023-03-13T04:16:41.724Z,61416.13
2023-03-13T04:19:10.097Z,61419.13
2023-03-13T04:21:39.704Z,61423.81
2023-03-13T04:24:14.962Z,61413.03
2023-03-13T04:26:44.505Z,61414.41
2023-03-13T04:29:14.548Z,61418.81
2023-03-13T04:31:54.161Z,61413.34
2023-03-13T04:34:22.845Z,61416.53
2023-03-13T04:37:14.239Z,61416.66
2023-03-13T04:39:59.649Z,61413.75
2023-03-13T04:42:46.968Z,61411.31
2023-03-13T04:45:28.183Z,61417.63
2023-03-13T04:47:56.529Z,61416.53
2023-03-13T04:50:43.529Z,61420.84
2023-03-13T04:53:32.135Z,61418.47
2023-03-13T04:56:41.763Z,61420.84
2023-03-13T04:59:28.216Z,61419.88
2023-03-13T05:02:16.596Z,61430.91
2023-03-13T05:05:03.409Z,61426.19
2023-03-13T05:08:10.939Z,61428.34
2023-03-13T05:10:59.637Z,61426.84
2023-03-13T05:13:47.767Z,61427.41
2023-03-13T05:16:42.392Z,61434.13
2023-03-13T05:19:30.765Z,61425.38
2023-03-13T05:22:09.262Z,61434.78
2023-03-13T05:24:39.112Z,61426.03
2023-03-13T05:27:44.237Z,61434.91
2023-03-13T05:30:32.799Z,61434.38
2023-03-13T05:33:20.420Z,61441.34
2023-03-13T05:36:08.587Z,61446.59
2023-03-13T05:39:12.633Z,61444.13
2023-03-13T05:41:59.671Z,61446.16
2023-03-13T05:44:54.455Z,61450.44
2023-03-13T05:48:00.970Z,61455.59
2023-03-13T05:51:01.337Z,61459.34
2023-03-13T05:54:09.197Z,61461.06
2023-03-13T05:56:54.221Z,61463.22
2023-03-13T05:59:41.836Z,61466.97
2023-03-13T06:02:30.154Z,61471.69
2023-03-13T06:05:00.109Z,61475.03
2023-03-13T06:07:28.564Z,61478.78
2023-03-13T06:09:58.338Z,61474.72
2023-03-13T06:12:26.831Z,61480.94
2023-03-13T06:14:55.217Z,61480.09
2023-03-13T06:17:42.201Z,61487.78
2023-03-13T06:20:12.755Z,61492.63
2023-03-13T06:22:41.891Z,61487.50
2023-03-13T06:25:12.340Z,61493.16
2023-03-13T06:27:42.257Z,61498.94
2023-03-13T06:30:13.170Z,61494.22
2023-03-13T06:32:41.755Z,61494.47
2023-03-13T06:35:11.053Z,61492.88
2023-03-13T06:37:39.423Z,61495.53
2023-03-13T06:40:09.402Z,61502.81
2023-03-13T06:42:39.138Z,61500.25
2023-03-13T06:45:09.435Z,61501.34
2023-03-13T06:47:37.793Z,61505.63
2023-03-13T06:50:07.196Z,61500.50
2023-03-13T06:52:43.496Z,61506.28
2023-03-13T06:55:13.709Z,61515.19
2023-03-13T06:57:44.426Z,61507.34
2023-03-13T07:00:14.057Z,61519.50
2023-03-13T07:02:42.469Z,61513.81
2023-03-13T07:05:11.240Z,61524.31
2023-03-13T07:07:39.692Z,61521.19
2023-03-13T07:10:10.582Z,61526.16
2023-03-13T07:12:39.473Z,61525.72
2023-03-13T07:15:10.429Z,61534.63
2023-03-13T07:17:39.186Z,61535.94
2023-03-13T07:20:10.638Z,61544.72
2023-03-13T07:22:39.318Z,61546.00
2023-03-13T07:25:09.696Z,61557.50
2023-03-13T07:27:38.576Z,61552.59
2023-03-13T07:30:10.307Z,61559.44
2023-03-13T07:32:38.917Z,61566.88
2023-03-13T07:35:08.473Z,61571.16
2023-03-13T07:37:36.763Z,61580.16
2023-03-13T07:40:06.018Z,61589.81
2023-03-13T07:42:34.496Z,61599.06
2023-03-13T07:45:02.881Z,61613.47
2023-03-13T07:47:35.143Z,61622.72
2023-03-13T07:50:03.741Z,61638.19
2023-03-13T07:52:32.562Z,61644.00
2023-03-13T07:55:01.091Z,61642.50
2023-03-13T07:57:29.515Z,61649.59
2023-03-13T07:59:57.864Z,61653.91
2023-03-13T08:02:26.361Z,61656.91
2023-03-13T08:04:58.780Z,61646.91
2023-03-13T08:07:27.270Z,61654.31
2023-03-13T08:09:55.616Z,61656.59
2023-03-13T08:12:24.026Z,61654.56
2023-03-13T08:14:52.340Z,61670.88
2023-03-13T08:17:20.714Z,61665.72
2023-03-13T08:19:49.091Z,61670.03
2023-03-13T08:22:18.853Z,61672.84
2023-03-13T08:24:47.211Z,61671.53
2023-03-13T08:27:15.644Z,61674.34
2023-03-13T08:29:44.014Z,61686.19
2023-03-13T08:32:13.026Z,61694.78
2023-03-13T08:34:41.330Z,61696.09
2023-03-13T08:37:09.690Z,61753.72
2023-03-13T08:39:39.633Z,61754.06
2023-03-13T08:42:10.040Z,61745.34
2023-03-13T08:44:38.380Z,61755.88
2023-03-13T08:47:08.155Z,61757.59
2023-03-13T08:49:36.740Z,61761.47
2023-03-13T08:52:06.071Z,61768.47
2023-03-13T08:54:34.605Z,61775.91
2023-03-13T08:57:04.455Z,61768.69
2023-03-13T08:59:32.830Z,61782.78
2023-03-13T09:02:01.319Z,61785.03
2023-03-13T09:04:29.699Z,61784.63
2023-03-13T09:06:58.437Z,61787.72
2023-03-13T09:09:26.921Z,61778.94
2023-03-13T09:11:55.791Z,61783.00
2023-03-13T09:14:25.529Z,61788.81
2023-03-13T09:16:53.967Z,61789.91
2023-03-13T09:19:22.352Z,61795.25
2023-03-13T09:21:50.733Z,61790.66
2023-03-13T09:24:20.174Z,61801.72
2023-03-13T09:27:00.442Z,61797.53
2023-03-13T09:29:30.975Z,61811.84
2023-03-13T09:31:59.983Z,61794.94
2023-03-13T09:34:28.359Z,61808.19
2023-03-13T09:36:56.758Z,61808.31
2023-03-13T09:39:25.095Z,61823.16
2023-03-13T09:42:06.244Z,61824.34
2023-03-13T09:44:42.465Z,61824.03
2023-03-13T09:47:19.453Z,61833.94
2023-03-13T09:49:54.271Z,61829.84
2023-03-13T09:52:25.991Z,61830.81
2023-03-13T09:55:00.458Z,61836.19
2023-03-13T09:57:36.460Z,61832.00
2023-03-13T10:00:14.759Z,61836.19
2023-03-13T10:02:47.420Z,61830.91
2023-03-13T10:05:20.094Z,61831.47
2023-03-13T10:07:48.739Z,61834.78
2023-03-13T10:10:19.543Z,61835.78
2023-03-13T10:12:50.698Z,61834.03
2023-03-13T10:15:34.153Z,61837.94
2023-03-13T10:18:15.863Z,61842.22
2023-03-13T10:20:48.056Z,61861.06
2023-03-13T10:23:22.832Z,61875.63
2023-03-13T10:25:51.153Z,61881.22
2023-03-13T10:28:22.588Z,61891.78
2023-03-13T10:30:57.168Z,61887.91
2023-03-13T10:33:28.208Z,61884.25
2023-03-13T10:36:17.306Z,61893.28
2023-03-13T10:38:51.701Z,61912.69
2023-03-13T10:41:30.496Z,61909.47
2023-03-13T10:44:03.007Z,61928.41
2023-03-13T10:46:35.833Z,61916.03
2023-03-13T10:49:06.338Z,61913.75
2023-03-13T10:51:40.530Z,61916.56
2023-03-13T10:54:24.654Z,61928.94
2023-03-13T10:56:55.987Z,61933.81
2023-03-13T10:59:27.546Z,61929.50
2023-03-13T11:02:02.228Z,61951.63
2023-03-13T11:04:34.317Z,61960.66
2023-03-13T11:07:11.093Z,61953.22
2023-03-13T11:09:39.936Z,61938.34
2023-03-13T11:12:15.363Z,61961.19
2023-03-13T11:14:46.305Z,61974.13
2023-03-13T11:17:27.095Z,61939.19
2023-03-13T11:20:07.059Z,61934.34
2023-03-13T11:22:57.463Z,61928.41
2023-03-13T11:25:36.954Z,61925.63
2023-03-13T11:28:31.304Z,61920.31
2023-03-13T11:31:11.423Z,61928.41
2023-03-13T11:33:57.584Z,61928.94
2023-03-13T11:36:35.483Z,61932.72
2023-03-13T11:39:32.778Z,61925.19
2023-03-13T11:42:05.182Z,61921.97
2023-03-13T11:44:49.624Z,61929.38
2023-03-13T11:47:51.566Z,61934.66
2023-03-13T11:50:38.872Z,61931.66
2023-03-13T11:53:35.055Z,61937.56
2023-03-13T11:56:11.792Z,61937.34
2023-03-13T11:58:56.677Z,61929.06
2023-03-13T12:01:31.499Z,61928.41
2023-03-13T12:04:05.412Z,61934.78
2023-03-13T12:06:42.084Z,61939.75
2023-03-13T12:09:16.703Z,61957.53
2023-03-13T12:11:54.027Z,61962.38
2023-03-13T12:14:29.116Z,61965.09
2023-03-13T12:17:01.136Z,61979.31
2023-03-13T12:19:34.539Z,61980.72
2023-03-13T12:22:15.087Z,61997.84
2023-03-13T12:24:49.431Z,61998.94
2023-03-13T12:27:22.138Z,61994.19
2023-03-13T12:29:57.767Z,61989.78
2023-03-13T12:32:37.402Z,61984.06
2023-03-13T12:35:18.094Z,61982.34
2023-03-13T12:37:56.190Z,61975.34
2023-03-13T12:40:31.419Z,61978.03
2023-03-13T12:43:07.342Z,61984.91
2023-03-13T12:45:46.953Z,61979.53
2023-03-13T12:48:37.005Z,61969.41
2023-03-13T12:51:25.351Z,61959.69
2023-03-13T12:54:28.684Z,61966.59
2023-03-13T12:57:50.347Z,61957.44
2023-03-13T13:00:22.649Z,61953.22
2023-03-13T13:03:09.407Z,61953.75
2023-03-13T13:05:38.197Z,61950.09
2023-03-13T13:08:06.825Z,61953.75
2023-03-13T13:10:36.712Z,61949.44
2023-03-13T13:13:31.187Z,61949.31
2023-03-13T13:16:05.937Z,61948.69
2023-03-13T13:18:35.786Z,61942.97
2023-03-13T13:21:29.460Z,61948.50
2023-03-13T13:24:42.686Z,61975.34
2023-03-13T13:27:47.304Z,61998.50
2023-03-13T13:30:34.007Z,62003.91
2023-03-13T13:33:35.981Z,62017.28
2023-03-13T13:36:31.700Z,62026.97
2023-03-13T13:39:00.722Z,62042.31
2023-03-13T13:41:38.198Z,62044.88
2023-03-13T13:44:29.880Z,62052.88
2023-03-13T13:47:02.068Z,62073.38
2023-03-13T13:49:38.177Z,62071.09
2023-03-13T13:52:39.172Z,62077.81
2023-03-13T13:55:42.460Z,62088.63
2023-03-13T13:58:18.674Z,62081.16
2023-03-13T14:00:54.654Z,62078.25
2023-03-13T14:03:26.517Z,62075.13
2023-03-13T14:05:58.927Z,62067.97
2023-03-13T14:08:31.924Z,62069.69
2023-03-13T14:11:22.643Z,62076.75
2023-03-13T14:14:14.486Z,62085.38
2023-03-13T14:16:48.088Z,62092.94
2023-03-13T14:19:29.450Z,62092.94
2023-03-13T14:22:03.072Z,62087.63
2023-03-13T14:24:31.813Z,62093.47
2023-03-13T14:27:00.398Z,62085.38
2023-03-13T14:29:30.002Z,62090.22
2023-03-13T14:32:01.209Z,62094.75
2023-03-13T14:34:32.633Z,62114.84
2023-03-13T14:37:17.805Z,62116.69
2023-03-13T14:39:49.197Z,62129.09
2023-03-13T14:42:19.447Z,62142.06
2023-03-13T14:44:50.357Z,62141.50
2023-03-13T14:47:26.957Z,62141.50
2023-03-13T14:50:00.163Z,62145.84
2023-03-13T14:52:31.336Z,62145.84
2023-03-13T14:55:04.307Z,62149.50
2023-03-13T14:57:34.288Z,62144.19
2023-03-13T15:00:31.522Z,62146.78
2023-03-13T15:03:29.101Z,62149.06
2023-03-13T15:06:16.833Z,62145.72
2023-03-13T15:08:48.275Z,62142.91
2023-03-13T15:11:32.204Z,62145.28
2023-03-13T15:14:00.743Z,62142.47
2023-03-13T15:16:30.027Z,62136.66
2023-03-13T15:18:59.881Z,62116.13
2023-03-13T15:21:31.523Z,62051.38
2023-03-13T15:24:03.095Z,61930.59
2023-03-13T15:26:31.667Z,61906.88
2023-03-13T15:29:00.098Z,61891.25
2023-03-13T15:31:30.690Z,61859.88
2023-03-13T15:34:02.365Z,61833.50
2023-03-13T15:36:32.971Z,61827.81
2023-03-13T15:39:01.458Z,61806.69
2023-03-13T15:41:29.864Z,61810.34
2023-03-13T15:43:58.255Z,61815.81
2023-03-13T15:46:27.653Z,61816.91
2023-03-13T15:48:56.157Z,61809.91
2023-03-13T15:51:27.746Z,61816.81
2023-03-13T15:53:56.251Z,61811.00
2023-03-13T15:56:35.465Z,61816.81
2023-03-13T15:59:11.022Z,61811.41
2023-03-13T16:01:39.679Z,61806.69
2023-03-13T16:04:08.569Z,61807.53
2023-03-13T16:06:38.620Z,61800.22
2023-03-13T16:09:08.403Z,61783.09
2023-03-13T16:11:36.780Z,61787.19
2023-03-13T16:14:05.402Z,61784.09
2023-03-13T16:16:37.703Z,61788.38
2023-03-13T16:19:07.733Z,61785.69
2023-03-13T16:21:40.343Z,61784.09
2023-03-13T16:24:09.204Z,61785.16
2023-03-13T16:26:37.807Z,61775.59
2023-03-13T16:29:06.238Z,61778.06
2023-03-13T16:31:36.430Z,61767.94
2023-03-13T16:34:04.928Z,61769.44
2023-03-13T16:36:34.337Z,61769.44
2023-03-13T16:39:09.607Z,61767.50
2023-03-13T16:41:38.444Z,61768.91
2023-03-13T16:44:07.165Z,61770.94
2023-03-13T16:46:39.436Z,61758.91
2023-03-13T16:49:14.224Z,61760.81
2023-03-13T16:51:42.958Z,61749.09
2023-03-13T16:54:12.864Z,61738.44
2023-03-13T16:56:43.638Z,61738.44
2023-03-13T16:59:14.471Z,61739.97
2023-03-13T17:01:42.944Z,61750.59
2023-03-13T17:04:12.582Z,61727.25
2023-03-13T17:06:44.594Z,61734.56
2023-03-13T17:09:18.571Z,61734.16
2023-03-13T17:11:47.108Z,61739.97
2023-03-13T17:14:15.487Z,61736.84
2023-03-13T17:16:46.061Z,61732.53
2023-03-13T17:19:16.958Z,61734.16
2023-03-13T17:21:45.550Z,61728.25
2023-03-13T17:24:15.259Z,61738.22
2023-03-13T17:26:43.832Z,61736.19
2023-03-13T17:29:20.534Z,61734.56
2023-03-13T17:31:48.873Z,61732.00
2023-03-13T17:34:17.974Z,61734.56
2023-03-13T17:36:47.549Z,61734.69
2023-03-13T17:39:17.295Z,61739.31
2023-03-13T17:41:45.677Z,61736.63
2023-03-13T17:44:14.028Z,61735.53
2023-03-13T17:46:45.009Z,61734.03
2023-03-13T17:49:15.500Z,61734.16
2023-03-13T17:51:47.634Z,61737.16
2023-03-13T17:54:18.458Z,61737.16
2023-03-13T17:56:47.350Z,61730.81
2023-03-13T17:59:18.090Z,61732.94
2023-03-13T18:01:47.263Z,61734.56
2023-03-13T18:04:15.817Z,61731.34
2023-03-13T18:06:46.884Z,61723.81
2023-03-13T18:09:19.233Z,61724.03
2023-03-13T18:11:48.181Z,61716.28
2023-03-13T18:14:17.022Z,61723.28
2023-03-13T18:16:48.347Z,61726.81
2023-03-13T18:19:22.385Z,61728.13
2023-03-13T18:21:54.362Z,61728.00
2023-03-13T18:24:24.641Z,61727.59
2023-03-13T18:26:53.436Z,61732.31
2023-03-13T18:29:27.098Z,61736.28
2023-03-13T18:31:56.701Z,61736.19
2023-03-13T18:34:25.840Z,61730.94
2023-03-13T18:36:54.791Z,61725.44
2023-03-13T18:39:24.617Z,61730.69
2023-03-13T18:41:53.155Z,61728.13
2023-03-13T18:44:21.742Z,61726.94
2023-03-13T18:46:52.046Z,61728.13
2023-03-13T18:49:24.759Z,61724.91
2023-03-13T18:51:54.638Z,61729.63
2023-03-13T18:54:24.353Z,61727.03
2023-03-13T18:56:52.824Z,61724.91
2023-03-13T18:59:23.681Z,61725.44
2023-03-13T19:01:52.095Z,61727.03
2023-03-13T19:04:21.087Z,61720.59
2023-03-13T19:06:49.532Z,61717.47
2023-03-13T19:09:42.764Z,61716.72
2023-03-13T19:12:11.792Z,61714.13
2023-03-13T19:14:40.167Z,61718.88
2023-03-13T19:17:17.955Z,61717.78
2023-03-13T19:19:46.323Z,61716.81
2023-03-13T19:22:15.424Z,61718.44
2023-03-13T19:24:43.774Z,61723.28
2023-03-13T19:27:16.844Z,61718.53
2023-03-13T19:29:46.569Z,61713.06
2023-03-13T19:32:16.543Z,61703.06
2023-03-13T19:34:45.273Z,61709.84
2023-03-13T19:37:14.950Z,61716.81
2023-03-13T19:39:43.798Z,61705.75
2023-03-13T19:42:13.474Z,61707.16
2023-03-13T19:44:42.072Z,61709.84
2023-03-13T19:47:15.228Z,61714.03
2023-03-13T19:49:45.415Z,61713.50
2023-03-13T19:52:13.878Z,61713.91
2023-03-13T19:54:42.268Z,61708.75
2023-03-13T19:57:13.295Z,61709.84
2023-03-13T19:59:41.646Z,61701.78
2023-03-13T20:02:12.434Z,61698.00
2023-03-13T20:04:42.195Z,61693.06
2023-03-13T20:07:10.600Z,61678.34
2023-03-13T20:09:39.044Z,61682.41
2023-03-13T20:12:07.921Z,61681.22
2023-03-13T20:14:37.733Z,61685.09
2023-03-13T20:17:06.135Z,61678.22
2023-03-13T20:19:34.608Z,61677.16
2023-03-13T20:22:05.190Z,61672.19
2023-03-13T20:24:34.470Z,61664.63
2023-03-13T20:27:03.466Z,61665.19
2023-03-13T20:29:33.166Z,61670.56
2023-03-13T20:32:04.689Z,61671.53
2023-03-13T20:34:33.193Z,61661.84
2023-03-13T20:37:02.598Z,61652.81
2023-03-13T20:39:31.486Z,61648.53
2023-03-13T20:42:02.630Z,61648.53
2023-03-13T20:44:31.381Z,61645.28
2023-03-13T20:46:59.771Z,61645.19
2023-03-13T20:49:29.469Z,61642.06
2023-03-13T20:51:57.880Z,61639.91
2023-03-13T20:54:26.250Z,61641.00
2023-03-13T20:56:55.473Z,61643.69
2023-03-13T20:59:23.861Z,61636.28
2023-03-13T21:01:52.264Z,61633.59
2023-03-13T21:04:20.617Z,61629.19
2023-03-13T21:06:50.631Z,61631.75
2023-03-13T21:09:19.053Z,61625.94
2023-03-13T21:11:47.416Z,61633.06
2023-03-13T21:14:15.788Z,61632.41
2023-03-13T21:16:44.162Z,61627.44
2023-03-13T21:19:12.445Z,61620.59
2023-03-13T21:21:40.768Z,61626.38
2023-03-13T21:24:11.387Z,61618.44
2023-03-13T21:26:39.733Z,61625.28
2023-03-13T21:29:09.961Z,61618.84
2023-03-13T21:31:39.440Z,61613.69
2023-03-13T21:34:08.436Z,61605.53
2023-03-13T21:36:36.911Z,61606.59
2023-03-13T21:39:07.992Z,61606.59
2023-03-13T21:41:38.201Z,61598.00
2023-03-13T21:44:07.980Z,61601.88
2023-03-13T21:46:36.415Z,61598.53
2023-03-13T21:49:04.983Z,61603.81
2023-03-13T21:51:33.430Z,61598.13
2023-03-13T21:54:01.881Z,61600.16
2023-03-13T21:56:30.209Z,61602.19
2023-03-13T21:59:00.545Z,61584.25
2023-03-13T22:01:28.974Z,61586.19
2023-03-13T22:03:57.330Z,61576.19
2023-03-13T22:06:25.792Z,61583.50
2023-03-13T22:08:54.174Z,61576.53
2023-03-13T22:11:22.588Z,61570.19
2023-03-13T22:13:51.627Z,61573.72
2023-03-13T22:16:25.281Z,61573.31
2023-03-13T22:18:54.070Z,61564.28
2023-03-13T22:21:23.152Z,61565.47
2023-03-13T22:23:51.796Z,61565.34
2023-03-13T22:26:20.265Z,61672.06
2023-03-13T22:28:48.616Z,61736.28
2023-03-13T22:31:16.960Z,61752.22
2023-03-13T22:33:46.726Z,61673.25
2023-03-13T22:36:15.171Z,61763.41
2023-03-13T22:38:43.596Z,61693.06
2023-03-13T22:41:15.161Z,61724.25
2023-03-13T22:43:43.707Z,61695.56
2023-03-13T22:46:12.772Z,61681.44
2023-03-13T22:48:41.948Z,61707.69
2023-03-13T22:51:14.219Z,61718.44
2023-03-13T22:53:43.724Z,61682.41
2023-03-13T22:56:13.078Z,61667.88
2023-03-13T22:58:42.976Z,61695.84
2023-03-13T23:01:14.825Z,61666.78
2023-03-13T23:03:43.709Z,61672.19
2023-03-13T23:06:18.786Z,61642.50
2023-03-13T23:08:47.857Z,61604.97
2023-03-13T23:11:17.314Z,61590.72
2023-03-13T23:13:45.949Z,61601.56
2023-03-13T23:16:15.151Z,61594.25
2023-03-13T23:18:43.712Z,61595.84
2023-03-13T23:21:15.620Z,61586.19
2023-03-13T23:23:44.853Z,61588.34
2023-03-13T23:26:16.100Z,61573.84
2023-03-13T23:28:44.744Z,61562.25
2023-03-13T23:31:15.836Z,61563.63
2023-03-13T23:33:45.350Z,61557.19
2023-03-13T23:36:17.553Z,61557.81
2023-03-13T23:38:50.525Z,61556.53
2023-03-13T23:41:20.104Z,61560.19
2023-03-13T23:43:48.636Z,61546.97
2023-03-13T23:46:18.322Z,61558.16
2023-03-13T23:48:47.416Z,61553.13
2023-03-13T23:51:17.200Z,61550.09
2023-03-13T23:53:45.974Z,61548.16
2023-03-13T23:56:14.512Z,61551.06
2023-03-13T23:58:43.275Z,61548.16
